sensor_id;sensor_type;location;lat;lon;timestamp;P1;durP1;ratioP1;P2;durP2;ratioP2
35909;SDS011;22004;49.120;-0.200;2024-01-30T00:00:36;19.65;;;8.90;;
35909;SDS011;22004;49.120;-0.200;2024-01-30T00:03:01;17.42;;;8.38;;
35909;SDS011;22004;49.120;-0.200;2024-01-30T00:05:27;24.55;;;9.30;;
35909;SDS011;22004;49.120;-0.200;2024-01-30T00:07:52;16.45;;;8.65;;
35909;SDS011;22004;49.120;-0.200;2024-01-30T00:10:17;21.92;;;9.50;;
35909;SDS011;22004;49.120;-0.200;2024-01-30T00:12:43;19.90;;;8.52;;
35909;SDS011;22004;49.120;-0.200;2024-01-30T00:15:08;19.35;;;9.55;;
35909;SDS011;22004;49.120;-0.200;2024-01-30T00:17:35;17.67;;;8.85;;
35909;SDS011;22004;49.120;-0.200;2024-01-30T00:20:03;17.38;;;8.02;;
35909;SDS011;22004;49.120;-0.200;2024-01-30T00:22:34;19.60;;;9.93;;
35909;SDS011;22004;49.120;-0.200;2024-01-30T00:24:59;16.90;;;8.93;;
35909;SDS011;22004;49.120;-0.200;2024-01-30T00:27:25;18.83;;;9.85;;
35909;SDS011;22004;49.120;-0.200;2024-01-30T00:29:51;14.32;;;8.25;;
35909;SDS011;22004;49.120;-0.200;2024-01-30T00:32:16;15.95;;;9.30;;
35909;SDS011;22004;49.120;-0.200;2024-01-30T00:34:44;18.52;;;9.60;;
35909;SDS011;22004;49.120;-0.200;2024-01-30T00:37:09;22.73;;;10.23;;
35909;SDS011;22004;49.120;-0.200;2024-01-30T00:39:34;14.60;;;7.47;;
35909;SDS011;22004;49.120;-0.200;2024-01-30T00:42:00;18.98;;;9.82;;
35909;SDS011;22004;49.120;-0.200;2024-01-30T00:44:25;17.60;;;8.40;;
35909;SDS011;22004;49.120;-0.200;2024-01-30T00:46:50;22.52;;;9.68;;
35909;SDS011;22004;49.120;-0.200;2024-01-30T00:49:16;21.48;;;10.20;;
35909;SDS011;22004;49.120;-0.200;2024-01-30T00:51:41;17.08;;;8.30;;
35909;SDS011;22004;49.120;-0.200;2024-01-30T00:54:06;22.50;;;8.30;;
35909;SDS011;22004;49.120;-0.200;2024-01-30T00:56:32;12.32;;;7.13;;
35909;SDS011;22004;49.120;-0.200;2024-01-30T00:58:57;17.17;;;7.75;;
35909;SDS011;22004;49.120;-0.200;2024-01-30T01:01:22;23.05;;;9.77;;
35909;SDS011;22004;49.120;-0.200;2024-01-30T01:03:48;18.95;;;9.00;;
35909;SDS011;22004;49.120;-0.200;2024-01-30T01:06:13;18.50;;;8.73;;
35909;SDS011;22004;49.120;-0.200;2024-01-30T01:08:39;26.00;;;11.23;;
35909;SDS011;22004;49.120;-0.200;2024-01-30T01:11:04;20.45;;;10.25;;
35909;SDS011;22004;49.120;-0.200;2024-01-30T01:13:29;20.05;;;7.57;;
35909;SDS011;22004;49.120;-0.200;2024-01-30T01:15:55;19.42;;;9.57;;
35909;SDS011;22004;49.120;-0.200;2024-01-30T01:18:20;19.10;;;8.63;;
35909;SDS011;22004;49.120;-0.200;2024-01-30T01:20:46;28.20;;;8.55;;
35909;SDS011;22004;49.120;-0.200;2024-01-30T01:23:11;17.48;;;9.95;;
35909;SDS011;22004;49.120;-0.200;2024-01-30T01:25:36;15.85;;;7.93;;
35909;SDS011;22004;49.120;-0.200;2024-01-30T01:28:01;14.85;;;8.10;;
35909;SDS011;22004;49.120;-0.200;2024-01-30T01:30:28;26.02;;;10.27;;
35909;SDS011;22004;49.120;-0.200;2024-01-30T01:32:54;14.07;;;8.13;;
35909;SDS011;22004;49.120;-0.200;2024-01-30T01:35:26;30.13;;;12.23;;
35909;SDS011;22004;49.120;-0.200;2024-01-30T01:37:51;22.02;;;9.63;;
35909;SDS011;22004;49.120;-0.200;2024-01-30T01:40:20;12.48;;;7.20;;
35909;SDS011;22004;49.120;-0.200;2024-01-30T01:42:47;10.25;;;6.15;;
35909;SDS011;22004;49.120;-0.200;2024-01-30T01:45:13;15.10;;;6.97;;
35909;SDS011;22004;49.120;-0.200;2024-01-30T01:47:38;26.85;;;9.32;;
35909;SDS011;22004;49.120;-0.200;2024-01-30T01:50:04;29.95;;;11.10;;
35909;SDS011;22004;49.120;-0.200;2024-01-30T01:52:30;25.52;;;9.73;;
35909;SDS011;22004;49.120;-0.200;2024-01-30T01:54:55;28.52;;;11.85;;
35909;SDS011;22004;49.120;-0.200;2024-01-30T01:57:21;25.77;;;11.88;;
35909;SDS011;22004;49.120;-0.200;2024-01-30T01:59:46;28.60;;;11.38;;
35909;SDS011;22004;49.120;-0.200;2024-01-30T02:02:12;32.40;;;12.25;;
35909;SDS011;22004;49.120;-0.200;2024-01-30T02:04:40;31.60;;;11.55;;
35909;SDS011;22004;49.120;-0.200;2024-01-30T02:07:06;41.97;;;14.05;;
35909;SDS011;22004;49.120;-0.200;2024-01-30T02:09:32;38.08;;;12.75;;
35909;SDS011;22004;49.120;-0.200;2024-01-30T02:11:57;34.60;;;13.45;;
35909;SDS011;22004;49.120;-0.200;2024-01-30T02:14:23;22.83;;;11.32;;
35909;SDS011;22004;49.120;-0.200;2024-01-30T02:16:48;35.03;;;12.88;;
35909;SDS011;22004;49.120;-0.200;2024-01-30T02:19:13;30.13;;;13.15;;
35909;SDS011;22004;49.120;-0.200;2024-01-30T02:21:39;29.30;;;13.20;;
35909;SDS011;22004;49.120;-0.200;2024-01-30T02:24:04;34.92;;;14.35;;
35909;SDS011;22004;49.120;-0.200;2024-01-30T02:26:30;34.35;;;12.98;;
35909;SDS011;22004;49.120;-0.200;2024-01-30T02:28:56;20.38;;;11.55;;
35909;SDS011;22004;49.120;-0.200;2024-01-30T02:31:21;34.45;;;14.00;;
35909;SDS011;22004;49.120;-0.200;2024-01-30T02:33:46;36.67;;;13.98;;
35909;SDS011;22004;49.120;-0.200;2024-01-30T02:36:11;25.38;;;13.07;;
35909;SDS011;22004;49.120;-0.200;2024-01-30T02:38:37;35.95;;;13.93;;
35909;SDS011;22004;49.120;-0.200;2024-01-30T02:41:02;30.05;;;14.07;;
35909;SDS011;22004;49.120;-0.200;2024-01-30T02:43:27;29.80;;;14.88;;
35909;SDS011;22004;49.120;-0.200;2024-01-30T02:45:53;30.48;;;13.13;;
35909;SDS011;22004;49.120;-0.200;2024-01-30T02:48:18;26.50;;;12.57;;
35909;SDS011;22004;49.120;-0.200;2024-01-30T02:50:43;20.90;;;10.45;;
35909;SDS011;22004;49.120;-0.200;2024-01-30T02:53:09;26.23;;;10.82;;
35909;SDS011;22004;49.120;-0.200;2024-01-30T02:55:34;24.85;;;11.02;;
35909;SDS011;22004;49.120;-0.200;2024-01-30T02:58:00;26.73;;;11.13;;
35909;SDS011;22004;49.120;-0.200;2024-01-30T03:00:25;35.38;;;13.10;;
35909;SDS011;22004;49.120;-0.200;2024-01-30T03:02:50;36.72;;;12.63;;
35909;SDS011;22004;49.120;-0.200;2024-01-30T03:05:16;27.08;;;11.25;;
35909;SDS011;22004;49.120;-0.200;2024-01-30T03:07:41;23.60;;;10.80;;
35909;SDS011;22004;49.120;-0.200;2024-01-30T03:10:07;28.00;;;10.95;;
35909;SDS011;22004;49.120;-0.200;2024-01-30T03:12:32;15.50;;;9.27;;
35909;SDS011;22004;49.120;-0.200;2024-01-30T03:14:58;27.67;;;10.80;;
35909;SDS011;22004;49.120;-0.200;2024-01-30T03:17:23;28.40;;;10.95;;
35909;SDS011;22004;49.120;-0.200;2024-01-30T03:19:49;25.40;;;10.45;;
35909;SDS011;22004;49.120;-0.200;2024-01-30T03:22:15;24.65;;;10.73;;
35909;SDS011;22004;49.120;-0.200;2024-01-30T03:24:40;16.95;;;9.32;;
35909;SDS011;22004;49.120;-0.200;2024-01-30T03:27:05;26.63;;;10.15;;
35909;SDS011;22004;49.120;-0.200;2024-01-30T03:29:31;23.45;;;10.00;;
35909;SDS011;22004;49.120;-0.200;2024-01-30T03:31:56;20.08;;;9.05;;
35909;SDS011;22004;49.120;-0.200;2024-01-30T03:34:21;22.17;;;10.02;;
35909;SDS011;22004;49.120;-0.200;2024-01-30T03:36:47;24.08;;;10.32;;
35909;SDS011;22004;49.120;-0.200;2024-01-30T03:39:12;26.67;;;9.75;;
35909;SDS011;22004;49.120;-0.200;2024-01-30T03:41:37;17.95;;;8.75;;
35909;SDS011;22004;49.120;-0.200;2024-01-30T03:44:03;16.40;;;8.30;;
35909;SDS011;22004;49.120;-0.200;2024-01-30T03:46:28;15.52;;;7.00;;
35909;SDS011;22004;49.120;-0.200;2024-01-30T03:48:54;17.52;;;6.95;;
35909;SDS011;22004;49.120;-0.200;2024-01-30T03:51:19;21.77;;;7.05;;
35909;SDS011;22004;49.120;-0.200;2024-01-30T03:53:44;13.95;;;6.30;;
35909;SDS011;22004;49.120;-0.200;2024-01-30T03:56:13;11.45;;;6.15;;
35909;SDS011;22004;49.120;-0.200;2024-01-30T03:58:39;18.85;;;6.57;;
35909;SDS011;22004;49.120;-0.200;2024-01-30T04:01:04;14.20;;;5.72;;
35909;SDS011;22004;49.120;-0.200;2024-01-30T04:03:30;16.20;;;5.75;;
35909;SDS011;22004;49.120;-0.200;2024-01-30T04:05:55;14.60;;;5.88;;
35909;SDS011;22004;49.120;-0.200;2024-01-30T04:08:20;12.10;;;5.10;;
35909;SDS011;22004;49.120;-0.200;2024-01-30T04:10:46;12.50;;;5.25;;
35909;SDS011;22004;49.120;-0.200;2024-01-30T04:13:12;9.30;;;4.70;;
35909;SDS011;22004;49.120;-0.200;2024-01-30T04:15:37;13.90;;;5.10;;
35909;SDS011;22004;49.120;-0.200;2024-01-30T04:18:02;9.55;;;3.97;;
35909;SDS011;22004;49.120;-0.200;2024-01-30T04:20:29;11.77;;;3.95;;
35909;SDS011;22004;49.120;-0.200;2024-01-30T04:22:54;10.90;;;4.53;;
35909;SDS011;22004;49.120;-0.200;2024-01-30T04:25:20;12.88;;;4.43;;
35909;SDS011;22004;49.120;-0.200;2024-01-30T04:27:45;15.98;;;4.35;;
35909;SDS011;22004;49.120;-0.200;2024-01-30T04:30:11;10.35;;;4.43;;
35909;SDS011;22004;49.120;-0.200;2024-01-30T04:32:36;11.65;;;3.55;;
35909;SDS011;22004;49.120;-0.200;2024-01-30T04:35:02;8.57;;;3.40;;
35909;SDS011;22004;49.120;-0.200;2024-01-30T04:37:28;10.60;;;3.50;;
35909;SDS011;22004;49.120;-0.200;2024-01-30T04:39:53;12.25;;;3.67;;
35909;SDS011;22004;49.120;-0.200;2024-01-30T04:42:19;8.88;;;3.45;;
35909;SDS011;22004;49.120;-0.200;2024-01-30T04:44:44;6.57;;;2.85;;
35909;SDS011;22004;49.120;-0.200;2024-01-30T04:47:10;10.10;;;3.47;;
35909;SDS011;22004;49.120;-0.200;2024-01-30T04:49:37;9.65;;;2.88;;
35909;SDS011;22004;49.120;-0.200;2024-01-30T04:52:04;10.10;;;3.50;;
35909;SDS011;22004;49.120;-0.200;2024-01-30T04:54:30;8.90;;;2.63;;
35909;SDS011;22004;49.120;-0.200;2024-01-30T04:56:56;6.38;;;3.42;;
35909;SDS011;22004;49.120;-0.200;2024-01-30T04:59:21;8.05;;;3.10;;
35909;SDS011;22004;49.120;-0.200;2024-01-30T05:01:46;10.98;;;3.00;;
35909;SDS011;22004;49.120;-0.200;2024-01-30T05:04:12;7.18;;;2.50;;
35909;SDS011;22004;49.120;-0.200;2024-01-30T05:06:37;5.97;;;2.88;;
35909;SDS011;22004;49.120;-0.200;2024-01-30T05:09:02;7.25;;;2.78;;
35909;SDS011;22004;49.120;-0.200;2024-01-30T05:11:31;8.98;;;3.08;;
35909;SDS011;22004;49.120;-0.200;2024-01-30T05:13:56;7.15;;;2.45;;
35909;SDS011;22004;49.120;-0.200;2024-01-30T05:16:21;8.05;;;2.55;;
35909;SDS011;22004;49.120;-0.200;2024-01-30T05:18:47;12.10;;;2.65;;
35909;SDS011;22004;49.120;-0.200;2024-01-30T05:21:12;5.20;;;2.53;;
35909;SDS011;22004;49.120;-0.200;2024-01-30T05:23:38;6.88;;;2.25;;
35909;SDS011;22004;49.120;-0.200;2024-01-30T05:26:03;7.38;;;2.65;;
35909;SDS011;22004;49.120;-0.200;2024-01-30T05:28:29;6.28;;;2.53;;
35909;SDS011;22004;49.120;-0.200;2024-01-30T05:30:55;6.95;;;2.50;;
35909;SDS011;22004;49.120;-0.200;2024-01-30T05:33:21;6.60;;;2.17;;
35909;SDS011;22004;49.120;-0.200;2024-01-30T05:35:46;10.88;;;2.17;;
35909;SDS011;22004;49.120;-0.200;2024-01-30T05:38:11;5.05;;;1.77;;
35909;SDS011;22004;49.120;-0.200;2024-01-30T05:40:37;5.43;;;2.17;;
35909;SDS011;22004;49.120;-0.200;2024-01-30T05:43:03;9.27;;;2.90;;
35909;SDS011;22004;49.120;-0.200;2024-01-30T05:45:28;5.40;;;2.00;;
35909;SDS011;22004;49.120;-0.200;2024-01-30T05:47:53;6.65;;;1.75;;
35909;SDS011;22004;49.120;-0.200;2024-01-30T05:50:19;5.15;;;1.88;;
35909;SDS011;22004;49.120;-0.200;2024-01-30T05:52:45;4.68;;;1.45;;
35909;SDS011;22004;49.120;-0.200;2024-01-30T05:55:11;4.63;;;1.73;;
35909;SDS011;22004;49.120;-0.200;2024-01-30T05:57:37;5.75;;;1.80;;
35909;SDS011;22004;49.120;-0.200;2024-01-30T06:00:03;4.47;;;1.65;;
35909;SDS011;22004;49.120;-0.200;2024-01-30T06:02:30;3.72;;;1.10;;
35909;SDS011;22004;49.120;-0.200;2024-01-30T06:04:55;6.30;;;1.52;;
35909;SDS011;22004;49.120;-0.200;2024-01-30T06:07:21;4.53;;;1.50;;
35909;SDS011;22004;49.120;-0.200;2024-01-30T06:09:47;3.60;;;1.23;;
35909;SDS011;22004;49.120;-0.200;2024-01-30T06:12:12;4.50;;;2.20;;
35909;SDS011;22004;49.120;-0.200;2024-01-30T06:14:37;3.67;;;1.25;;
35909;SDS011;22004;49.120;-0.200;2024-01-30T06:17:03;2.72;;;1.20;;
35909;SDS011;22004;49.120;-0.200;2024-01-30T06:19:29;3.20;;;1.52;;
35909;SDS011;22004;49.120;-0.200;2024-01-30T06:21:55;4.25;;;1.70;;
35909;SDS011;22004;49.120;-0.200;2024-01-30T06:24:20;3.10;;;1.15;;
35909;SDS011;22004;49.120;-0.200;2024-01-30T06:26:45;4.50;;;1.73;;
35909;SDS011;22004;49.120;-0.200;2024-01-30T06:29:11;3.55;;;1.30;;
35909;SDS011;22004;49.120;-0.200;2024-01-30T06:31:40;3.35;;;1.20;;
35909;SDS011;22004;49.120;-0.200;2024-01-30T06:34:06;4.68;;;1.50;;
35909;SDS011;22004;49.120;-0.200;2024-01-30T06:36:32;4.93;;;1.38;;
35909;SDS011;22004;49.120;-0.200;2024-01-30T06:38:57;2.95;;;1.10;;
35909;SDS011;22004;49.120;-0.200;2024-01-30T06:41:22;3.05;;;1.13;;
35909;SDS011;22004;49.120;-0.200;2024-01-30T06:43:48;3.58;;;1.00;;
35909;SDS011;22004;49.120;-0.200;2024-01-30T06:46:14;1.80;;;1.05;;
35909;SDS011;22004;49.120;-0.200;2024-01-30T06:48:39;2.05;;;0.85;;
35909;SDS011;22004;49.120;-0.200;2024-01-30T06:51:05;3.05;;;1.10;;
35909;SDS011;22004;49.120;-0.200;2024-01-30T06:53:31;7.00;;;1.50;;
35909;SDS011;22004;49.120;-0.200;2024-01-30T06:55:57;2.40;;;1.17;;
35909;SDS011;22004;49.120;-0.200;2024-01-30T06:58:22;4.30;;;1.38;;
35909;SDS011;22004;49.120;-0.200;2024-01-30T07:00:47;2.45;;;0.90;;
35909;SDS011;22004;49.120;-0.200;2024-01-30T07:03:13;1.92;;;0.90;;
35909;SDS011;22004;49.120;-0.200;2024-01-30T07:05:38;3.90;;;1.17;;
35909;SDS011;22004;49.120;-0.200;2024-01-30T07:08:03;3.47;;;1.35;;
35909;SDS011;22004;49.120;-0.200;2024-01-30T07:10:29;3.13;;;0.90;;
35909;SDS011;22004;49.120;-0.200;2024-01-30T07:12:54;1.75;;;1.10;;
35909;SDS011;22004;49.120;-0.200;2024-01-30T07:15:19;2.55;;;1.00;;
35909;SDS011;22004;49.120;-0.200;2024-01-30T07:17:45;1.17;;;0.90;;
35909;SDS011;22004;49.120;-0.200;2024-01-30T07:20:11;3.35;;;1.10;;
35909;SDS011;22004;49.120;-0.200;2024-01-30T07:22:36;2.78;;;1.10;;
35909;SDS011;22004;49.120;-0.200;2024-01-30T07:25:02;1.83;;;1.10;;
35909;SDS011;22004;49.120;-0.200;2024-01-30T07:27:27;2.40;;;1.10;;
35909;SDS011;22004;49.120;-0.200;2024-01-30T18:28:15;14.65;;;4.97;;
35909;SDS011;22004;49.120;-0.200;2024-01-30T18:30:40;18.10;;;6.03;;
35909;SDS011;22004;49.120;-0.200;2024-01-30T18:33:05;17.95;;;5.93;;
35909;SDS011;22004;49.120;-0.200;2024-01-30T18:35:31;15.40;;;6.05;;
35909;SDS011;22004;49.120;-0.200;2024-01-30T18:37:58;15.65;;;6.47;;
35909;SDS011;22004;49.120;-0.200;2024-01-30T18:40:23;19.40;;;6.00;;
35909;SDS011;22004;49.120;-0.200;2024-01-30T18:42:49;18.40;;;6.82;;
35909;SDS011;22004;49.120;-0.200;2024-01-30T18:45:14;16.75;;;6.25;;
35909;SDS011;22004;49.120;-0.200;2024-01-30T18:47:39;15.68;;;5.70;;
35909;SDS011;22004;49.120;-0.200;2024-01-30T18:50:05;17.88;;;6.43;;
35909;SDS011;22004;49.120;-0.200;2024-01-30T18:52:31;13.98;;;5.30;;
35909;SDS011;22004;49.120;-0.200;2024-01-30T18:54:56;15.43;;;6.18;;
35909;SDS011;22004;49.120;-0.200;2024-01-30T18:57:22;18.20;;;6.40;;
35909;SDS011;22004;49.120;-0.200;2024-01-30T18:59:47;16.75;;;6.13;;
35909;SDS011;22004;49.120;-0.200;2024-01-30T19:02:12;16.67;;;6.20;;
35909;SDS011;22004;49.120;-0.200;2024-01-30T19:04:38;12.52;;;5.80;;
35909;SDS011;22004;49.120;-0.200;2024-01-30T19:07:04;15.30;;;6.22;;
35909;SDS011;22004;49.120;-0.200;2024-01-30T19:09:29;14.82;;;6.00;;
35909;SDS011;22004;49.120;-0.200;2024-01-30T19:11:55;15.00;;;5.60;;
35909;SDS011;22004;49.120;-0.200;2024-01-30T19:14:20;17.42;;;6.47;;
35909;SDS011;22004;49.120;-0.200;2024-01-30T19:16:46;18.17;;;6.03;;
35909;SDS011;22004;49.120;-0.200;2024-01-30T19:19:12;15.10;;;5.82;;
35909;SDS011;22004;49.120;-0.200;2024-01-30T19:21:37;15.30;;;6.93;;
35909;SDS011;22004;49.120;-0.200;2024-01-30T19:24:02;15.32;;;6.38;;
35909;SDS011;22004;49.120;-0.200;2024-01-30T19:26:29;14.43;;;6.55;;
35909;SDS011;22004;49.120;-0.200;2024-01-30T19:28:54;13.70;;;5.70;;
35909;SDS011;22004;49.120;-0.200;2024-01-30T19:31:20;16.65;;;7.25;;
35909;SDS011;22004;49.120;-0.200;2024-01-30T19:33:45;17.02;;;7.57;;
35909;SDS011;22004;49.120;-0.200;2024-01-30T19:36:11;16.55;;;7.90;;
35909;SDS011;22004;49.120;-0.200;2024-01-30T19:38:36;16.13;;;6.82;;
35909;SDS011;22004;49.120;-0.200;2024-01-30T19:41:02;16.33;;;6.95;;
35909;SDS011;22004;49.120;-0.200;2024-01-30T19:43:27;21.20;;;7.50;;
35909;SDS011;22004;49.120;-0.200;2024-01-30T19:45:52;18.15;;;7.15;;
35909;SDS011;22004;49.120;-0.200;2024-01-30T19:48:18;16.48;;;7.18;;
35909;SDS011;22004;49.120;-0.200;2024-01-30T19:50:44;16.80;;;6.88;;
35909;SDS011;22004;49.120;-0.200;2024-01-30T19:53:09;16.65;;;7.18;;
35909;SDS011;22004;49.120;-0.200;2024-01-30T19:55:35;18.38;;;7.07;;
35909;SDS011;22004;49.120;-0.200;2024-01-30T19:58:00;15.55;;;6.57;;
35909;SDS011;22004;49.120;-0.200;2024-01-30T20:00:29;14.35;;;6.55;;
35909;SDS011;22004;49.120;-0.200;2024-01-30T20:02:55;12.93;;;6.20;;
35909;SDS011;22004;49.120;-0.200;2024-01-30T20:05:20;15.45;;;5.88;;
35909;SDS011;22004;49.120;-0.200;2024-01-30T20:07:45;15.05;;;6.50;;
35909;SDS011;22004;49.120;-0.200;2024-01-30T20:10:11;13.77;;;5.82;;
35909;SDS011;22004;49.120;-0.200;2024-01-30T20:12:37;14.73;;;6.15;;
35909;SDS011;22004;49.120;-0.200;2024-01-30T20:15:03;14.55;;;5.50;;
35909;SDS011;22004;49.120;-0.200;2024-01-30T20:17:29;13.88;;;5.97;;
35909;SDS011;22004;49.120;-0.200;2024-01-30T20:19:57;14.40;;;7.05;;
35909;SDS011;22004;49.120;-0.200;2024-01-30T20:22:22;16.20;;;5.85;;
35909;SDS011;22004;49.120;-0.200;2024-01-30T20:24:48;27.83;;;11.75;;
35909;SDS011;22004;49.120;-0.200;2024-01-30T20:27:13;30.65;;;12.70;;
35909;SDS011;22004;49.120;-0.200;2024-01-30T20:29:39;24.42;;;10.73;;
35909;SDS011;22004;49.120;-0.200;2024-01-30T20:32:04;24.02;;;9.88;;
35909;SDS011;22004;49.120;-0.200;2024-01-30T20:34:30;17.15;;;7.90;;
35909;SDS011;22004;49.120;-0.200;2024-01-30T20:36:55;21.00;;;7.95;;
35909;SDS011;22004;49.120;-0.200;2024-01-30T20:39:21;23.35;;;8.45;;
35909;SDS011;22004;49.120;-0.200;2024-01-30T20:41:46;16.55;;;8.07;;
35909;SDS011;22004;49.120;-0.200;2024-01-30T20:44:13;18.35;;;8.48;;
35909;SDS011;22004;49.120;-0.200;2024-01-30T20:46:40;20.60;;;9.57;;
35909;SDS011;22004;49.120;-0.200;2024-01-30T20:49:05;20.20;;;8.77;;
35909;SDS011;22004;49.120;-0.200;2024-01-30T20:51:31;17.55;;;8.57;;
35909;SDS011;22004;49.120;-0.200;2024-01-30T20:53:56;19.73;;;7.80;;
35909;SDS011;22004;49.120;-0.200;2024-01-30T20:56:21;19.55;;;8.63;;
35909;SDS011;22004;49.120;-0.200;2024-01-30T20:58:47;16.60;;;7.72;;
35909;SDS011;22004;49.120;-0.200;2024-01-30T21:01:12;18.45;;;8.15;;
35909;SDS011;22004;49.120;-0.200;2024-01-30T21:03:38;18.17;;;8.52;;
35909;SDS011;22004;49.120;-0.200;2024-01-30T21:06:04;21.23;;;8.13;;
35909;SDS011;22004;49.120;-0.200;2024-01-30T21:08:31;17.27;;;7.75;;
35909;SDS011;22004;49.120;-0.200;2024-01-30T21:10:56;18.30;;;7.63;;
35909;SDS011;22004;49.120;-0.200;2024-01-30T21:13:24;16.45;;;7.70;;
35909;SDS011;22004;49.120;-0.200;2024-01-30T21:15:49;17.88;;;7.57;;
35909;SDS011;22004;49.120;-0.200;2024-01-30T21:18:14;19.10;;;7.85;;
35909;SDS011;22004;49.120;-0.200;2024-01-30T21:20:40;19.85;;;7.97;;
35909;SDS011;22004;49.120;-0.200;2024-01-30T21:23:05;20.98;;;8.02;;
35909;SDS011;22004;49.120;-0.200;2024-01-30T21:25:30;14.43;;;7.53;;
35909;SDS011;22004;49.120;-0.200;2024-01-30T21:27:56;17.02;;;7.22;;
35909;SDS011;22004;49.120;-0.200;2024-01-30T21:30:21;17.92;;;8.00;;
35909;SDS011;22004;49.120;-0.200;2024-01-30T21:32:46;15.07;;;6.57;;
35909;SDS011;22004;49.120;-0.200;2024-01-30T21:35:12;19.30;;;7.70;;
35909;SDS011;22004;49.120;-0.200;2024-01-30T21:37:37;18.10;;;7.30;;
35909;SDS011;22004;49.120;-0.200;2024-01-30T21:40:03;18.33;;;7.50;;
35909;SDS011;22004;49.120;-0.200;2024-01-30T21:42:29;18.70;;;6.80;;
35909;SDS011;22004;49.120;-0.200;2024-01-30T21:44:54;13.77;;;6.97;;
35909;SDS011;22004;49.120;-0.200;2024-01-30T21:47:23;16.42;;;7.05;;
35909;SDS011;22004;49.120;-0.200;2024-01-30T21:49:49;17.15;;;6.82;;
35909;SDS011;22004;49.120;-0.200;2024-01-30T21:52:15;18.08;;;6.82;;
35909;SDS011;22004;49.120;-0.200;2024-01-30T21:54:41;15.10;;;6.43;;
35909;SDS011;22004;49.120;-0.200;2024-01-30T21:57:06;16.08;;;6.53;;
35909;SDS011;22004;49.120;-0.200;2024-01-30T21:59:31;15.48;;;6.75;;
35909;SDS011;22004;49.120;-0.200;2024-01-30T22:01:57;13.25;;;6.28;;
35909;SDS011;22004;49.120;-0.200;2024-01-30T22:04:23;14.43;;;6.05;;
35909;SDS011;22004;49.120;-0.200;2024-01-30T22:06:48;18.52;;;6.97;;
35909;SDS011;22004;49.120;-0.200;2024-01-30T22:09:14;15.95;;;6.70;;
35909;SDS011;22004;49.120;-0.200;2024-01-30T22:11:40;17.52;;;6.30;;
35909;SDS011;22004;49.120;-0.200;2024-01-30T22:14:06;17.75;;;6.75;;
35909;SDS011;22004;49.120;-0.200;2024-01-30T22:16:31;13.70;;;6.63;;
35909;SDS011;22004;49.120;-0.200;2024-01-30T22:18:57;15.75;;;6.38;;
35909;SDS011;22004;49.120;-0.200;2024-01-30T22:21:22;18.23;;;6.85;;
35909;SDS011;22004;49.120;-0.200;2024-01-30T22:23:48;11.05;;;5.90;;
35909;SDS011;22004;49.120;-0.200;2024-01-30T22:26:14;15.35;;;6.93;;
35909;SDS011;22004;49.120;-0.200;2024-01-30T22:28:40;18.73;;;6.93;;
35909;SDS011;22004;49.120;-0.200;2024-01-30T22:31:05;13.10;;;6.40;;
35909;SDS011;22004;49.120;-0.200;2024-01-30T22:33:31;12.82;;;6.80;;
35909;SDS011;22004;49.120;-0.200;2024-01-30T22:35:56;13.95;;;6.55;;
35909;SDS011;22004;49.120;-0.200;2024-01-30T22:38:21;14.57;;;6.80;;
35909;SDS011;22004;49.120;-0.200;2024-01-30T22:40:47;14.60;;;6.55;;
35909;SDS011;22004;49.120;-0.200;2024-01-30T22:43:12;16.20;;;7.13;;
35909;SDS011;22004;49.120;-0.200;2024-01-30T22:45:38;15.90;;;6.63;;
35909;SDS011;22004;49.120;-0.200;2024-01-30T22:48:03;14.18;;;6.70;;
35909;SDS011;22004;49.120;-0.200;2024-01-30T22:50:28;17.33;;;6.10;;
35909;SDS011;22004;49.120;-0.200;2024-01-30T22:52:54;13.98;;;6.13;;
35909;SDS011;22004;49.120;-0.200;2024-01-30T22:55:19;19.95;;;7.20;;
35909;SDS011;22004;49.120;-0.200;2024-01-30T22:57:45;12.23;;;5.82;;
35909;SDS011;22004;49.120;-0.200;2024-01-30T23:00:10;14.13;;;6.25;;
35909;SDS011;22004;49.120;-0.200;2024-01-30T23:02:39;13.05;;;6.07;;
35909;SDS011;22004;49.120;-0.200;2024-01-30T23:05:05;17.15;;;7.00;;
35909;SDS011;22004;49.120;-0.200;2024-01-30T23:07:30;18.63;;;6.65;;
35909;SDS011;22004;49.120;-0.200;2024-01-30T23:09:55;13.38;;;5.95;;
35909;SDS011;22004;49.120;-0.200;2024-01-30T23:12:21;17.40;;;6.40;;
